Cullowhee, NC

8:30 PM EST on February 05, 2016 (GMT -0500)
Court House Hill | | Change Station
CLOSE
Current Station
Personal Weather Station
Location: Sylva, NC
Elevation: 2172 ft
Nearby Weather Stations

Elev 2172 ft 35.37 °N, 83.23 °W | Updated 31 seconds ago

Clear
Clear
32.0 °F
Feels Like 32 °F
N
0.0
Wind Variable Wind from SE
Gusts 0.0 mph

Today
High -- | Low -- °F
--% Chance of Precip.
Yesterday
High -- | Low -- °F
Precip. -- in
Pressure 30.33 in
Visibility 10.0 miles
Clouds Clear
Windchill 32 °F
Dew Point 8 °F
Humidity 35%
Rainfall 0.00 in
Snow Depth Not available.
7:29 AM 6:04 PM
Waning Crescent, 8% visible
METAR K1A5 060115Z AUTO 25005KT 10SM CLR M01/M08 A3033 RMK AO2 T10151078
Pressure 30.33 in
Visibility 10.0 miles
Clouds Clear
Windchill 32 °F
Dew Point 8 °F
Humidity 35%
Rainfall 0.00 in
Snow Depth Not available.
7:29 AM 6:04 PM
Waning Crescent, 8% visible
METAR K1A5 060115Z AUTO 25005KT 10SM CLR M01/M08 A3033 RMK AO2 T10151078

10-Day Weather Forecast

Almanac

Astronomy

Feb. 05, 2016 Rise Set
Actual Time
Civil Twilight
Nautical Twilight
Astronomical Twilight
Moon
Length of Visible Light
Length of Day
Tomorrow will be .
, % of the Moon is Illuminated

Today's Extremes

State Highs State Lows

Community

WunderPhotos

Upload Photos

1,890,904 photos uploaded!

WunderBlog® & News

Nearby

Air Quality

  Air Quality AQ Index Pollutant
Not available.

Snow Depth

Station Depth Elevation

Earthquake Activity

City Distance Mag. Time & Date
Minimum magnitude displayed is 2.5.

Coastal Water Temperatures

Place Temperature

Stations

Nearby Weather Stations

Station Location Temp. Windchill Dew Point Humidity Wind Precip. Elev Updated Type
                   

Watches & Warnings

There are currently no watches in effect.